sensor_id;sensor_type;location;lat;lon;timestamp;pressure;altitude;pressure_sealevel;temperature;humidity
19023;BME280;35226;48.606;8.858;2022-11-20T00:01:13;95740.63;;;4.40;100.00
19023;BME280;35226;48.606;8.858;2022-11-20T00:03:38;95737.50;;;4.38;100.00
19023;BME280;35226;48.606;8.858;2022-11-20T00:06:09;95736.38;;;4.35;100.00
19023;BME280;35226;48.606;8.858;2022-11-20T00:08:35;95748.13;;;4.32;100.00
19023;BME280;35226;48.606;8.858;2022-11-20T00:11:11;95742.75;;;4.29;100.00
19023;BME280;35226;48.606;8.858;2022-11-20T00:13:38;95737.75;;;4.24;100.00
19023;BME280;35226;48.606;8.858;2022-11-20T00:16:06;95746.44;;;4.19;100.00
19023;BME280;35226;48.606;8.858;2022-11-20T00:18:33;95746.53;;;4.12;100.00
19023;BME280;35226;48.606;8.858;2022-11-20T00:21:12;95742.91;;;4.18;100.00
19023;BME280;35226;48.606;8.858;2022-11-20T00:23:38;95740.47;;;4.24;100.00
19023;BME280;35226;48.606;8.858;2022-11-20T00:26:05;95745.28;;;4.16;100.00
19023;BME280;35226;48.606;8.858;2022-11-20T00:28:31;95748.84;;;4.13;100.00
19023;BME280;35226;48.606;8.858;2022-11-20T00:31:04;95743.09;;;4.07;100.00
19023;BME280;35226;48.606;8.858;2022-11-20T00:33:30;95750.97;;;4.02;100.00
19023;BME280;35226;48.606;8.858;2022-11-20T00:36:04;95750.91;;;4.05;100.00
19023;BME280;35226;48.606;8.858;2022-11-20T00:38:31;95754.44;;;4.06;100.00
19023;BME280;35226;48.606;8.858;2022-11-20T00:40:58;95750.22;;;4.01;100.00
19023;BME280;35226;48.606;8.858;2022-11-20T00:43:24;95752.25;;;3.94;100.00
19023;BME280;35226;48.606;8.858;2022-11-20T00:45:50;95746.63;;;3.81;100.00
19023;BME280;35226;48.606;8.858;2022-11-20T00:48:15;95750.78;;;3.89;100.00
19023;BME280;35226;48.606;8.858;2022-11-20T00:50:41;95754.56;;;3.42;100.00
19023;BME280;35226;48.606;8.858;2022-11-20T00:53:07;95753.66;;;3.52;100.00
19023;BME280;35226;48.606;8.858;2022-11-20T00:55:32;95755.16;;;3.56;100.00
19023;BME280;35226;48.606;8.858;2022-11-20T00:57:58;95760.03;;;3.72;100.00
19023;BME280;35226;48.606;8.858;2022-11-20T01:00:23;95765.16;;;3.66;100.00
19023;BME280;35226;48.606;8.858;2022-11-20T01:02:49;95758.75;;;3.50;100.00
19023;BME280;35226;48.606;8.858;2022-11-20T01:05:14;95760.75;;;3.46;100.00
19023;BME280;35226;48.606;8.858;2022-11-20T01:07:40;95755.41;;;3.65;100.00
19023;BME280;35226;48.606;8.858;2022-11-20T01:10:06;95762.91;;;3.61;100.00
19023;BME280;35226;48.606;8.858;2022-11-20T01:12:31;95755.50;;;3.58;100.00
19023;BME280;35226;48.606;8.858;2022-11-20T01:14:57;95756.31;;;3.55;100.00
19023;BME280;35226;48.606;8.858;2022-11-20T01:17:22;95757.09;;;3.56;100.00
19023;BME280;35226;48.606;8.858;2022-11-20T01:19:49;95762.25;;;3.50;100.00
19023;BME280;35226;48.606;8.858;2022-11-20T01:22:15;95759.19;;;3.45;100.00
19023;BME280;35226;48.606;8.858;2022-11-20T01:24:41;95761.41;;;3.53;100.00
19023;BME280;35226;48.606;8.858;2022-11-20T01:27:06;95764.63;;;3.48;100.00
19023;BME280;35226;48.606;8.858;2022-11-20T01:29:32;95773.59;;;3.49;100.00
19023;BME280;35226;48.606;8.858;2022-11-20T01:31:57;95770.53;;;3.43;100.00
19023;BME280;35226;48.606;8.858;2022-11-20T01:34:23;95767.09;;;3.39;100.00
19023;BME280;35226;48.606;8.858;2022-11-20T01:36:49;95770.69;;;3.32;100.00
19023;BME280;35226;48.606;8.858;2022-11-20T01:39:18;95778.09;;;3.32;100.00
19023;BME280;35226;48.606;8.858;2022-11-20T01:41:44;95766.31;;;3.39;100.00
19023;BME280;35226;48.606;8.858;2022-11-20T01:47:38;95767.59;;;3.30;100.00
19023;BME280;35226;48.606;8.858;2022-11-20T01:50:23;95769.94;;;3.28;100.00
19023;BME280;35226;48.606;8.858;2022-11-20T01:52:57;95765.84;;;3.44;100.00
19023;BME280;35226;48.606;8.858;2022-11-20T01:55:28;95773.69;;;3.42;100.00
19023;BME280;35226;48.606;8.858;2022-11-20T01:57:55;95768.69;;;3.03;100.00
19023;BME280;35226;48.606;8.858;2022-11-20T02:00:21;95765.94;;;3.37;100.00
19023;BME280;35226;48.606;8.858;2022-11-20T02:02:58;95772.56;;;3.35;100.00
19023;BME280;35226;48.606;8.858;2022-11-20T02:08:16;95769.56;;;3.26;100.00
19023;BME280;35226;48.606;8.858;2022-11-20T02:10:42;95752.16;;;3.17;100.00
19023;BME280;35226;48.606;8.858;2022-11-20T02:13:08;95748.69;;;3.13;100.00
19023;BME280;35226;48.606;8.858;2022-11-20T02:15:52;95749.50;;;3.10;100.00
19023;BME280;35226;48.606;8.858;2022-11-20T02:18:19;95749.16;;;3.04;100.00
19023;BME280;35226;48.606;8.858;2022-11-20T02:20:47;95752.34;;;2.99;100.00
19023;BME280;35226;48.606;8.858;2022-11-20T02:23:26;95755.88;;;2.96;100.00
19023;BME280;35226;48.606;8.858;2022-11-20T02:25:55;95752.38;;;2.95;100.00
19023;BME280;35226;48.606;8.858;2022-11-20T02:28:22;95762.19;;;2.93;100.00
19023;BME280;35226;48.606;8.858;2022-11-20T02:30:48;95766.50;;;2.87;100.00
19023;BME280;35226;48.606;8.858;2022-11-20T02:33:14;95759.06;;;2.91;100.00
19023;BME280;35226;48.606;8.858;2022-11-20T02:35:44;95761.34;;;2.96;100.00
19023;BME280;35226;48.606;8.858;2022-11-20T02:38:11;95758.63;;;2.96;100.00
19023;BME280;35226;48.606;8.858;2022-11-20T02:40:36;95756.19;;;2.68;100.00
19023;BME280;35226;48.606;8.858;2022-11-20T02:43:02;95766.03;;;2.95;100.00
19023;BME280;35226;48.606;8.858;2022-11-20T02:45:28;95764.34;;;3.09;100.00
19023;BME280;35226;48.606;8.858;2022-11-20T02:47:53;95760.13;;;3.01;100.00
19023;BME280;35226;48.606;8.858;2022-11-20T02:50:19;95764.53;;;2.91;100.00
19023;BME280;35226;48.606;8.858;2022-11-20T02:52:44;95762.47;;;3.02;100.00
19023;BME280;35226;48.606;8.858;2022-11-20T02:55:10;95756.00;;;2.85;100.00
19023;BME280;35226;48.606;8.858;2022-11-20T02:57:35;95761.41;;;2.92;100.00
19023;BME280;35226;48.606;8.858;2022-11-20T03:00:02;95756.63;;;3.00;100.00
19023;BME280;35226;48.606;8.858;2022-11-20T03:02:31;95762.88;;;3.01;100.00
19023;BME280;35226;48.606;8.858;2022-11-20T03:04:57;95758.63;;;2.96;100.00
19023;BME280;35226;48.606;8.858;2022-11-20T03:07:22;95764.13;;;2.92;100.00
19023;BME280;35226;48.606;8.858;2022-11-20T03:09:48;95757.13;;;2.91;100.00
19023;BME280;35226;48.606;8.858;2022-11-20T03:12:14;95760.28;;;2.86;100.00
19023;BME280;35226;48.606;8.858;2022-11-20T03:14:39;95757.53;;;2.90;100.00
19023;BME280;35226;48.606;8.858;2022-11-20T03:17:05;95750.91;;;2.87;100.00
19023;BME280;35226;48.606;8.858;2022-11-20T03:19:30;95763.00;;;2.86;100.00
19023;BME280;35226;48.606;8.858;2022-11-20T03:21:56;95755.41;;;2.67;100.00
19023;BME280;35226;48.606;8.858;2022-11-20T03:24:21;95757.63;;;2.79;100.00
19023;BME280;35226;48.606;8.858;2022-11-20T03:26:47;95751.72;;;2.84;100.00
19023;BME280;35226;48.606;8.858;2022-11-20T03:29:12;95754.81;;;2.86;100.00
19023;BME280;35226;48.606;8.858;2022-11-20T03:31:39;95759.50;;;2.86;100.00
19023;BME280;35226;48.606;8.858;2022-11-20T03:34:07;95768.44;;;2.90;100.00
19023;BME280;35226;48.606;8.858;2022-11-20T03:36:33;95764.25;;;2.82;100.00
19023;BME280;35226;48.606;8.858;2022-11-20T03:38:59;95759.78;;;2.95;100.00
19023;BME280;35226;48.606;8.858;2022-11-20T03:41:30;95760.22;;;2.93;100.00
19023;BME280;35226;48.606;8.858;2022-11-20T03:43:58;95755.47;;;3.01;100.00
19023;BME280;35226;48.606;8.858;2022-11-20T03:46:24;95757.84;;;2.95;100.00
19023;BME280;35226;48.606;8.858;2022-11-20T03:48:50;95755.88;;;2.96;100.00
19023;BME280;35226;48.606;8.858;2022-11-20T03:51:27;95758.69;;;2.89;100.00
19023;BME280;35226;48.606;8.858;2022-11-20T03:53:55;95753.50;;;3.02;100.00
19023;BME280;35226;48.606;8.858;2022-11-20T03:56:24;95756.56;;;3.04;100.00
19023;BME280;35226;48.606;8.858;2022-11-20T03:58:50;95749.41;;;3.17;100.00
19023;BME280;35226;48.606;8.858;2022-11-20T04:01:18;95763.34;;;3.26;100.00
19023;BME280;35226;48.606;8.858;2022-11-20T04:03:44;95756.91;;;3.09;100.00
19023;BME280;35226;48.606;8.858;2022-11-20T04:06:19;95758.50;;;3.07;100.00
19023;BME280;35226;48.606;8.858;2022-11-20T04:08:45;95765.34;;;2.88;100.00
19023;BME280;35226;48.606;8.858;2022-11-20T04:11:18;95764.97;;;3.20;100.00
19023;BME280;35226;48.606;8.858;2022-11-20T04:13:50;95761.00;;;3.24;100.00
19023;BME280;35226;48.606;8.858;2022-11-20T04:16:16;95760.56;;;2.95;100.00
19023;BME280;35226;48.606;8.858;2022-11-20T04:18:43;95751.75;;;3.18;100.00
19023;BME280;35226;48.606;8.858;2022-11-20T04:21:09;95754.41;;;2.91;100.00
19023;BME280;35226;48.606;8.858;2022-11-20T04:23:34;95752.91;;;3.17;100.00
19023;BME280;35226;48.606;8.858;2022-11-20T04:26:04;95753.19;;;3.26;100.00
19023;BME280;35226;48.606;8.858;2022-11-20T04:28:30;95751.66;;;3.25;100.00
19023;BME280;35226;48.606;8.858;2022-11-20T04:31:02;95740.69;;;3.29;100.00
19023;BME280;35226;48.606;8.858;2022-11-20T04:33:27;95749.00;;;3.18;100.00
19023;BME280;35226;48.606;8.858;2022-11-20T04:35:53;95753.13;;;3.00;100.00
19023;BME280;35226;48.606;8.858;2022-11-20T04:38:19;95749.75;;;3.22;100.00
19023;BME280;35226;48.606;8.858;2022-11-20T04:40:44;95745.47;;;3.21;100.00
19023;BME280;35226;48.606;8.858;2022-11-20T04:43:10;95757.56;;;2.86;100.00
19023;BME280;35226;48.606;8.858;2022-11-20T04:45:35;95746.44;;;3.04;100.00
19023;BME280;35226;48.606;8.858;2022-11-20T04:48:01;95748.59;;;3.20;100.00
19023;BME280;35226;48.606;8.858;2022-11-20T04:50:26;95743.69;;;3.08;100.00
19023;BME280;35226;48.606;8.858;2022-11-20T04:52:52;95748.06;;;3.32;100.00
19023;BME280;35226;48.606;8.858;2022-11-20T04:55:17;95750.84;;;2.94;100.00
19023;BME280;35226;48.606;8.858;2022-11-20T04:57:43;95741.88;;;3.28;100.00
19023;BME280;35226;48.606;8.858;2022-11-20T05:00:09;95738.13;;;3.15;100.00
19023;BME280;35226;48.606;8.858;2022-11-20T05:02:34;95747.28;;;3.01;100.00
19023;BME280;35226;48.606;8.858;2022-11-20T05:05:00;95746.78;;;3.10;100.00
19023;BME280;35226;48.606;8.858;2022-11-20T05:07:25;95748.34;;;3.07;100.00
19023;BME280;35226;48.606;8.858;2022-11-20T05:09:51;95745.09;;;3.19;100.00
19023;BME280;35226;48.606;8.858;2022-11-20T05:12:17;95738.66;;;3.33;100.00
19023;BME280;35226;48.606;8.858;2022-11-20T05:14:42;95735.19;;;3.32;100.00
19023;BME280;35226;48.606;8.858;2022-11-20T05:17:10;95737.47;;;3.38;100.00
19023;BME280;35226;48.606;8.858;2022-11-20T05:19:36;95732.66;;;3.45;100.00
19023;BME280;35226;48.606;8.858;2022-11-20T05:22:01;95733.13;;;3.40;100.00
19023;BME280;35226;48.606;8.858;2022-11-20T05:24:27;95735.47;;;3.42;100.00
19023;BME280;35226;48.606;8.858;2022-11-20T05:26:52;95733.41;;;3.19;100.00
19023;BME280;35226;48.606;8.858;2022-11-20T05:29:21;95738.00;;;3.25;100.00
19023;BME280;35226;48.606;8.858;2022-11-20T05:31:46;95745.41;;;3.25;100.00
19023;BME280;35226;48.606;8.858;2022-11-20T05:34:12;95739.63;;;3.19;100.00
19023;BME280;35226;48.606;8.858;2022-11-20T05:36:37;95742.38;;;3.19;100.00
19023;BME280;35226;48.606;8.858;2022-11-20T05:39:03;95735.84;;;3.10;100.00
19023;BME280;35226;48.606;8.858;2022-11-20T05:41:29;95746.81;;;3.06;100.00
19023;BME280;35226;48.606;8.858;2022-11-20T05:43:55;95748.59;;;3.20;100.00
19023;BME280;35226;48.606;8.858;2022-11-20T05:46:22;95743.22;;;3.43;100.00
19023;BME280;35226;48.606;8.858;2022-11-20T05:48:47;95740.34;;;3.23;100.00
19023;BME280;35226;48.606;8.858;2022-11-20T05:51:16;95735.31;;;3.22;100.00
19023;BME280;35226;48.606;8.858;2022-11-20T05:53:42;95744.00;;;3.44;100.00
19023;BME280;35226;48.606;8.858;2022-11-20T05:56:13;95736.69;;;3.64;100.00
19023;BME280;35226;48.606;8.858;2022-11-20T05:58:40;95736.66;;;3.41;100.00
19023;BME280;35226;48.606;8.858;2022-11-20T06:01:12;95735.59;;;3.31;100.00
19023;BME280;35226;48.606;8.858;2022-11-20T06:03:39;95732.81;;;3.34;100.00
19023;BME280;35226;48.606;8.858;2022-11-20T06:06:05;95738.66;;;3.33;100.00
19023;BME280;35226;48.606;8.858;2022-11-20T06:08:32;95744.69;;;3.21;100.00
19023;BME280;35226;48.606;8.858;2022-11-20T06:10:58;95732.50;;;3.29;100.00
19023;BME280;35226;48.606;8.858;2022-11-20T06:13:24;95733.50;;;3.42;100.00
19023;BME280;35226;48.606;8.858;2022-11-20T06:15:50;95736.72;;;3.33;100.00
19023;BME280;35226;48.606;8.858;2022-11-20T06:18:16;95737.16;;;3.32;100.00
19023;BME280;35226;48.606;8.858;2022-11-20T06:20:42;95729.09;;;3.52;100.00
19023;BME280;35226;48.606;8.858;2022-11-20T06:23:08;95733.97;;;3.64;100.00
19023;BME280;35226;48.606;8.858;2022-11-20T06:25:37;95735.88;;;3.67;100.00
19023;BME280;35226;48.606;8.858;2022-11-20T06:28:03;95733.28;;;3.56;100.00
19023;BME280;35226;48.606;8.858;2022-11-20T06:30:28;95734.22;;;3.46;100.00
19023;BME280;35226;48.606;8.858;2022-11-20T06:32:54;95734.19;;;3.50;100.00
19023;BME280;35226;48.606;8.858;2022-11-20T06:35:19;95745.19;;;3.43;100.00
19023;BME280;35226;48.606;8.858;2022-11-20T06:37:45;95740.72;;;3.56;100.00
19023;BME280;35226;48.606;8.858;2022-11-20T06:40:11;95748.97;;;3.52;100.00
19023;BME280;35226;48.606;8.858;2022-11-20T06:42:36;95738.88;;;3.49;100.00
19023;BME280;35226;48.606;8.858;2022-11-20T06:45:02;95738.06;;;3.52;100.00
19023;BME280;35226;48.606;8.858;2022-11-20T06:47:28;95738.19;;;3.42;100.00
19023;BME280;35226;48.606;8.858;2022-11-20T06:49:53;95736.84;;;3.53;100.00
19023;BME280;35226;48.606;8.858;2022-11-20T06:52:19;95738.38;;;3.54;100.00
19023;BME280;35226;48.606;8.858;2022-11-20T06:54:44;95738.78;;;3.53;100.00
19023;BME280;35226;48.606;8.858;2022-11-20T06:57:10;95740.44;;;3.47;100.00
19023;BME280;35226;48.606;8.858;2022-11-20T06:59:35;95739.28;;;3.48;100.00
19023;BME280;35226;48.606;8.858;2022-11-20T07:02:01;95739.34;;;3.71;100.00
19023;BME280;35226;48.606;8.858;2022-11-20T07:04:29;95741.03;;;3.61;100.00
19023;BME280;35226;48.606;8.858;2022-11-20T07:06:55;95752.81;;;3.55;100.00
19023;BME280;35226;48.606;8.858;2022-11-20T07:09:20;95751.09;;;3.68;100.00
19023;BME280;35226;48.606;8.858;2022-11-20T07:11:46;95758.50;;;3.67;100.00
19023;BME280;35226;48.606;8.858;2022-11-20T07:14:11;95754.03;;;3.81;100.00
19023;BME280;35226;48.606;8.858;2022-11-20T07:16:37;95752.53;;;3.76;100.00
19023;BME280;35226;48.606;8.858;2022-11-20T07:19:02;95752.50;;;3.80;100.00
19023;BME280;35226;48.606;8.858;2022-11-20T07:21:28;95745.78;;;3.84;100.00
19023;BME280;35226;48.606;8.858;2022-11-20T07:23:53;95747.69;;;3.87;100.00
19023;BME280;35226;48.606;8.858;2022-11-20T07:26:19;95748.09;;;3.86;100.00
19023;BME280;35226;48.606;8.858;2022-11-20T07:28:45;95747.31;;;3.85;100.00
19023;BME280;35226;48.606;8.858;2022-11-20T07:31:10;95750.78;;;3.89;100.00
19023;BME280;35226;48.606;8.858;2022-11-20T07:33:38;95760.56;;;3.87;100.00
19023;BME280;35226;48.606;8.858;2022-11-20T07:36:04;95757.28;;;3.99;100.00
19023;BME280;35226;48.606;8.858;2022-11-20T07:38:30;95760.66;;;4.06;100.00
19023;BME280;35226;48.606;8.858;2022-11-20T07:40:56;95762.91;;;4.12;100.00
19023;BME280;35226;48.606;8.858;2022-11-20T07:43:23;95760.50;;;4.17;100.00
19023;BME280;35226;48.606;8.858;2022-11-20T07:45:49;95757.97;;;4.30;100.00
19023;BME280;35226;48.606;8.858;2022-11-20T07:48:14;95753.28;;;4.30;100.00
19023;BME280;35226;48.606;8.858;2022-11-20T07:50:40;95754.34;;;4.36;100.00
19023;BME280;35226;48.606;8.858;2022-11-20T07:53:06;95760.44;;;4.44;100.00
19023;BME280;35226;48.606;8.858;2022-11-20T07:55:32;95766.22;;;4.50;100.00
19023;BME280;35226;48.606;8.858;2022-11-20T07:57:58;95768.44;;;4.58;100.00
19023;BME280;35226;48.606;8.858;2022-11-20T08:00:24;95769.97;;;4.59;100.00
19023;BME280;35226;48.606;8.858;2022-11-20T08:02:50;95766.09;;;4.57;100.00
19023;BME280;35226;48.606;8.858;2022-11-20T08:05:15;95769.47;;;4.64;100.00
19023;BME280;35226;48.606;8.858;2022-11-20T08:07:43;95770.38;;;4.58;100.00
19023;BME280;35226;48.606;8.858;2022-11-20T08:10:10;95777.69;;;4.64;100.00
19023;BME280;35226;48.606;8.858;2022-11-20T08:12:44;95783.47;;;4.70;100.00
19023;BME280;35226;48.606;8.858;2022-11-20T08:15:29;95782.22;;;4.74;100.00
19023;BME280;35226;48.606;8.858;2022-11-20T08:18:21;95784.59;;;4.72;100.00
19023;BME280;35226;48.606;8.858;2022-11-20T08:20:46;95790.00;;;4.76;100.00
19023;BME280;35226;48.606;8.858;2022-11-20T08:23:12;95790.81;;;4.73;100.00
19023;BME280;35226;48.606;8.858;2022-11-20T08:25:38;95798.06;;;4.83;100.00
19023;BME280;35226;48.606;8.858;2022-11-20T08:28:05;95802.72;;;4.86;100.00
19023;BME280;35226;48.606;8.858;2022-11-20T08:30:32;95799.94;;;4.90;100.00
19023;BME280;35226;48.606;8.858;2022-11-20T08:33:08;95793.56;;;4.96;100.00
19023;BME280;35226;48.606;8.858;2022-11-20T08:35:35;95801.03;;;4.92;100.00
19023;BME280;35226;48.606;8.858;2022-11-20T08:38:02;95804.41;;;5.00;100.00
19023;BME280;35226;48.606;8.858;2022-11-20T08:40:28;95807.81;;;5.07;100.00
19023;BME280;35226;48.606;8.858;2022-11-20T08:42:54;95807.09;;;5.03;100.00
19023;BME280;35226;48.606;8.858;2022-11-20T08:45:19;95809.28;;;5.12;100.00
19023;BME280;35226;48.606;8.858;2022-11-20T08:47:45;95811.91;;;5.19;100.00
19023;BME280;35226;48.606;8.858;2022-11-20T08:50:13;95807.94;;;5.20;100.00
19023;BME280;35226;48.606;8.858;2022-11-20T08:52:39;95814.72;;;5.15;100.00
19023;BME280;35226;48.606;8.858;2022-11-20T08:55:05;95820.34;;;5.28;100.00
19023;BME280;35226;48.606;8.858;2022-11-20T08:57:32;95823.78;;;5.32;100.00
19023;BME280;35226;48.606;8.858;2022-11-20T08:59:58;95820.81;;;5.23;100.00
19023;BME280;35226;48.606;8.858;2022-11-20T09:02:24;95820.25;;;5.32;100.00
19023;BME280;35226;48.606;8.858;2022-11-20T09:04:50;95817.66;;;5.44;100.00
19023;BME280;35226;48.606;8.858;2022-11-20T09:07:15;95824.97;;;5.31;100.00
19023;BME280;35226;48.606;8.858;2022-11-20T09:09:41;95826.44;;;5.36;100.00
19023;BME280;35226;48.606;8.858;2022-11-20T09:12:07;95829.88;;;5.40;100.00
19023;BME280;35226;48.606;8.858;2022-11-20T09:14:32;95827.59;;;5.38;100.00
19023;BME280;35226;48.606;8.858;2022-11-20T09:16:59;95832.75;;;5.33;100.00
19023;BME280;35226;48.606;8.858;2022-11-20T09:19:25;95826.81;;;5.38;100.00
19023;BME280;35226;48.606;8.858;2022-11-20T09:21:51;95833.34;;;5.44;100.00
19023;BME280;35226;48.606;8.858;2022-11-20T09:24:17;95847.03;;;5.44;100.00
19023;BME280;35226;48.606;8.858;2022-11-20T09:26:45;95837.69;;;5.41;100.00
19023;BME280;35226;48.606;8.858;2022-11-20T09:29:11;95841.28;;;5.38;100.00
19023;BME280;35226;48.606;8.858;2022-11-20T09:31:36;95844.22;;;5.47;100.00
19023;BME280;35226;48.606;8.858;2022-11-20T09:34:02;95840.28;;;5.29;100.00
19023;BME280;35226;48.606;8.858;2022-11-20T09:36:27;95834.09;;;5.44;100.00
19023;BME280;35226;48.606;8.858;2022-11-20T09:38:53;95837.13;;;5.50;100.00
19023;BME280;35226;48.606;8.858;2022-11-20T09:41:42;95841.69;;;5.37;100.00
19023;BME280;35226;48.606;8.858;2022-11-20T09:54:38;95838.09;;;5.59;100.00
19023;BME280;35226;48.606;8.858;2022-11-20T09:57:19;95843.09;;;5.65;100.00
19023;BME280;35226;48.606;8.858;2022-11-20T09:59:51;95840.34;;;5.65;100.00
19023;BME280;35226;48.606;8.858;2022-11-20T10:02:41;95834.59;;;5.59;100.00
19023;BME280;35226;48.606;8.858;2022-11-20T10:05:12;95840.16;;;5.75;100.00
19023;BME280;35226;48.606;8.858;2022-11-20T10:24:05;95842.59;;;5.89;100.00
19023;BME280;35226;48.606;8.858;2022-11-20T10:26:49;95847.25;;;5.92;100.00
19023;BME280;35226;48.606;8.858;2022-11-20T10:29:18;95835.78;;;5.98;100.00
19023;BME280;35226;48.606;8.858;2022-11-20T10:31:51;95835.78;;;5.98;100.00
19023;BME280;35226;48.606;8.858;2022-11-20T10:37:41;95834.78;;;6.08;100.00
19023;BME280;35226;48.606;8.858;2022-11-20T10:42:52;95820.28;;;6.76;100.00
19023;BME280;35226;48.606;8.858;2022-11-20T10:48:21;95825.72;;;7.08;100.00
19023;BME280;35226;48.606;8.858;2022-11-20T10:56:25;95810.69;;;6.96;100.00
19023;BME280;35226;48.606;8.858;2022-11-20T10:59:03;95806.88;;;6.94;100.00
19023;BME280;35226;48.606;8.858;2022-11-20T11:01:29;95811.06;;;6.98;100.00
19023;BME280;35226;48.606;8.858;2022-11-20T11:03:55;95813.59;;;7.05;100.00
19023;BME280;35226;48.606;8.858;2022-11-20T11:06:36;95808.03;;;7.09;100.00
19023;BME280;35226;48.606;8.858;2022-11-20T11:09:17;95805.44;;;7.18;100.00
19023;BME280;35226;48.606;8.858;2022-11-20T11:11:44;95800.56;;;7.10;100.00
19023;BME280;35226;48.606;8.858;2022-11-20T11:14:12;95785.97;;;7.13;100.00
19023;BME280;35226;48.606;8.858;2022-11-20T11:16:52;95785.28;;;7.09;100.00
19023;BME280;35226;48.606;8.858;2022-11-20T11:19:19;95780.81;;;7.15;100.00
19023;BME280;35226;48.606;8.858;2022-11-20T11:21:55;95769.84;;;7.27;100.00
19023;BME280;35226;48.606;8.858;2022-11-20T11:24:27;95766.22;;;7.59;100.00
19023;BME280;35226;48.606;8.858;2022-11-20T11:26:58;95769.44;;;7.96;100.00
19023;BME280;35226;48.606;8.858;2022-11-20T11:29:24;95759.47;;;7.48;100.00
19023;BME280;35226;48.606;8.858;2022-11-20T11:32:03;95764.19;;;7.47;100.00
19023;BME280;35226;48.606;8.858;2022-11-20T11:34:29;95768.69;;;7.83;100.00
19023;BME280;35226;48.606;8.858;2022-11-20T11:36:57;95761.25;;;7.54;100.00
19023;BME280;35226;48.606;8.858;2022-11-20T11:39:25;95761.81;;;7.20;100.00
19023;BME280;35226;48.606;8.858;2022-11-20T11:41:51;95760.47;;;7.12;100.00
19023;BME280;35226;48.606;8.858;2022-11-20T11:44:20;95749.16;;;7.10;100.00
19023;BME280;35226;48.606;8.858;2022-11-20T11:47:09;95751.25;;;7.19;100.00
19023;BME280;35226;48.606;8.858;2022-11-20T11:49:36;95749.16;;;7.10;100.00
19023;BME280;35226;48.606;8.858;2022-11-20T11:52:18;95743.44;;;7.17;100.00
19023;BME280;35226;48.606;8.858;2022-11-20T11:54:51;95741.81;;;7.20;100.00
19023;BME280;35226;48.606;8.858;2022-11-20T11:57:42;95742.63;;;7.33;100.00
19023;BME280;35226;48.606;8.858;2022-11-20T12:00:12;95737.44;;;7.35;100.00
19023;BME280;35226;48.606;8.858;2022-11-20T12:05:36;95736.59;;;7.38;100.00
19023;BME280;35226;48.606;8.858;2022-11-20T12:13:45;95732.69;;;7.77;100.00
19023;BME280;35226;48.606;8.858;2022-11-20T12:16:14;95736.13;;;7.81;100.00
19023;BME280;35226;48.606;8.858;2022-11-20T12:18:43;95727.97;;;8.28;100.00
19023;BME280;35226;48.606;8.858;2022-11-20T12:34:47;95726.97;;;8.47;100.00
19023;BME280;35226;48.606;8.858;2022-11-20T12:40:09;95724.78;;;7.92;100.00
19023;BME280;35226;48.606;8.858;2022-11-20T12:43:04;95718.53;;;7.91;100.00
19023;BME280;35226;48.606;8.858;2022-11-20T12:56:43;95726.09;;;7.87;100.00
19023;BME280;35226;48.606;8.858;2022-11-20T13:07:52;95720.91;;;8.27;100.00
19023;BME280;35226;48.606;8.858;2022-11-20T13:14:04;95731.38;;;7.94;100.00
19023;BME280;35226;48.606;8.858;2022-11-20T13:16:52;95730.06;;;7.86;100.00
19023;BME280;35226;48.606;8.858;2022-11-20T13:19:19;95725.88;;;7.94;100.00
19023;BME280;35226;48.606;8.858;2022-11-20T13:21:46;95733.81;;;7.92;100.00
19023;BME280;35226;48.606;8.858;2022-11-20T13:27:03;95720.72;;;7.96;100.00
19023;BME280;35226;48.606;8.858;2022-11-20T13:29:29;95715.44;;;8.02;100.00
19023;BME280;35226;48.606;8.858;2022-11-20T13:32:24;95715.44;;;7.89;100.00
19023;BME280;35226;48.606;8.858;2022-11-20T13:34:56;95709.16;;;7.76;100.00
19023;BME280;35226;48.606;8.858;2022-11-20T13:40:11;95709.84;;;7.93;100.00
19023;BME280;35226;48.606;8.858;2022-11-20T13:45:28;95698.94;;;7.89;100.00
19023;BME280;35226;48.606;8.858;2022-11-20T13:47:55;95701.91;;;7.82;100.00
19023;BME280;35226;48.606;8.858;2022-11-20T13:50:39;95706.75;;;7.78;100.00
19023;BME280;35226;48.606;8.858;2022-11-20T13:53:42;95698.94;;;7.64;100.00
19023;BME280;35226;48.606;8.858;2022-11-20T13:56:31;95701.44;;;7.58;100.00
19023;BME280;35226;48.606;8.858;2022-11-20T14:01:50;95692.34;;;7.61;100.00
19023;BME280;35226;48.606;8.858;2022-11-20T14:04:21;95694.06;;;7.55;100.00
19023;BME280;35226;48.606;8.858;2022-11-20T14:06:51;95687.38;;;7.43;100.00
19023;BME280;35226;48.606;8.858;2022-11-20T14:09:30;95698.34;;;7.31;100.00
19023;BME280;35226;48.606;8.858;2022-11-20T14:11:57;95689.41;;;7.27;100.00
19023;BME280;35226;48.606;8.858;2022-11-20T14:14:27;95685.66;;;7.21;100.00
19023;BME280;35226;48.606;8.858;2022-11-20T14:17:06;95683.44;;;7.16;100.00
19023;BME280;35226;48.606;8.858;2022-11-20T14:19:32;95683.53;;;6.99;100.00
19023;BME280;35226;48.606;8.858;2022-11-20T14:24:39;95684.63;;;7.02;100.00
19023;BME280;35226;48.606;8.858;2022-11-20T14:27:09;95687.47;;;6.98;100.00
19023;BME280;35226;48.606;8.858;2022-11-20T14:29:38;95677.50;;;7.04;100.00
19023;BME280;35226;48.606;8.858;2022-11-20T14:32:04;95682.66;;;7.02;100.00
19023;BME280;35226;48.606;8.858;2022-11-20T14:34:35;95677.22;;;6.86;100.00
19023;BME280;35226;48.606;8.858;2022-11-20T14:37:05;95679.94;;;6.86;100.00
19023;BME280;35226;48.606;8.858;2022-11-20T14:39:37;95677.94;;;6.74;100.00
19023;BME280;35226;48.606;8.858;2022-11-20T14:42:15;95674.53;;;6.70;100.00
19023;BME280;35226;48.606;8.858;2022-11-20T14:44:41;95666.81;;;6.65;100.00
19023;BME280;35226;48.606;8.858;2022-11-20T14:47:11;95649.75;;;6.57;100.00
19023;BME280;35226;48.606;8.858;2022-11-20T14:49:38;95650.09;;;6.59;100.00
19023;BME280;35226;48.606;8.858;2022-11-20T14:52:14;95648.28;;;6.69;100.00
19023;BME280;35226;48.606;8.858;2022-11-20T14:54:55;95642.25;;;6.74;100.00
19023;BME280;35226;48.606;8.858;2022-11-20T14:59:46;95630.22;;;6.55;100.00